TimeMST,TemperatureF,Dew PointF,Humidity,Sea Level PressureIn,VisibilityMPH,Wind Direction,Wind SpeedMPH,Gust SpeedMPH,PrecipitationIn,Events,Conditions,WindDirDegrees,DateUTC
12:56 AM,54.0,30.9,41,29.88,10.0,NW,10.4,-,N/A,,Clear,320,2012-10-25 07:56:00
1:56 AM,52.0,30.0,43,29.89,10.0,NNW,9.2,-,N/A,,Clear,340,2012-10-25 08:56:00
2:56 AM,50.0,30.0,46,29.88,10.0,NNW,8.1,-,N/A,,Clear,330,2012-10-25 09:56:00
3:56 AM,48.0,30.9,52,29.90,10.0,NNW,10.4,-,N/A,,Clear,340,2012-10-25 10:56:00
4:56 AM,46.4,28.4,50,30.06,10.0,North,10.4,-,N/A,,Clear,10,2012-10-25 11:56:00
5:56 AM,44.6,24.8,46,30.07,10.0,Calm,Calm,-,N/A,,Clear,0,2012-10-25 12:56:00
6:56 AM,45.0,25.0,46,29.97,10.0,Calm,Calm,-,N/A,,Clear,0,2012-10-25 13:56:00
7:56 AM,51.1,25.0,36,29.98,10.0,West,4.6,-,N/A,,Clear,260,2012-10-25 14:56:00
8:56 AM,57.0,28.9,34,29.99,10.0,Calm,Calm,-,N/A,,Clear,0,2012-10-25 15:56:00
10:56 AM,70.0,21.9,16,29.94,10.0,North,4.6,-,N/A,,Clear,350,2012-10-25 17:56:00
11:56 AM,73.0,17.1,12,29.91,10.0,Calm,Calm,-,N/A,,Clear,0,2012-10-25 18:56:00
12:56 PM,75.0,9.0,8,29.88,10.0,Variable,4.6,-,N/A,,Clear,0,2012-10-25 19:56:00
1:56 PM,77.0,1.9,5,29.86,10.0,West,5.8,-,N/A,,Clear,280,2012-10-25 20:56:00
2:56 PM,78.1,10.0,7,29.85,10.0,Variable,6.9,-,N/A,,Clear,0,2012-10-25 21:56:00
3:56 PM,80.1,10.0,7,29.85,10.0,North,5.8,-,N/A,,Clear,350,2012-10-25 22:56:00
4:56 PM,78.1,10.0,7,29.85,10.0,North,10.4,-,N/A,,Clear,350,2012-10-25 23:56:00
5:56 PM,69.8,14.0,12,30.01,10.0,North,9.2,-,N/A,,Clear,10,2012-10-26 00:56:00
6:56 PM,64.0,15.1,15,29.91,10.0,NNE,6.9,-,N/A,,Clear,20,2012-10-26 01:56:00
7:56 PM,57.0,15.1,19,29.93,10.0,WNW,8.1,-,N/A,,Clear,290,2012-10-26 02:56:00
8:56 PM,57.2,12.2,17,30.04,10.0,NNW,13.8,-,N/A,,Clear,330,2012-10-26 03:56:00
9:56 PM,53.1,12.0,20,29.92,10.0,NNW,9.2,-,N/A,,Clear,340,2012-10-26 04:56:00
10:56 PM,52.0,12.0,20,29.91,10.0,North,10.4,-,N/A,,Clear,360,2012-10-26 05:56:00
11:56 PM,53.1,10.0,18,29.90,10.0,North,9.2,-,N/A,,Clear,10,2012-10-26 06:56:00